Time;durP1;ratioP1;P1;durP2;ratioP2;P2;SDS_P1;SDS_P2;PMS_P1;PMS_P2;Temp;Humidity;BMP_temperature;BMP_pressure;BME280_temperature;BME280_humidity;BME280_pressure;Samples;Min_cycle;Max_cycle;Signal;HPM_P1;HPM_P2
2021/10/06 00:00:35;;;;;;;;;;;;;;;14.72;59.97;100293.25;1596156;88;20173;-81
2021/10/06 00:03:01;;;;;;;;;;;;;;;14.64;60.35;100290.68;1597566;88;20163;-81
2021/10/06 00:05:26;;;;;;;;;;;;;;;14.65;60.24;100288.36;1598862;89;20515;-82
2021/10/06 00:07:52;;;;;;;;;;;;;;;14.69;60.25;100281.66;1596897;88;21813;-82
2021/10/06 00:10:17;;;;;;;;;;;;;;;14.72;60.17;100279.97;1597639;88;20164;-81
2021/10/06 00:12:43;;;;;;;;;;;;;;;14.70;60.29;100278.00;1595376;88;20567;-81
2021/10/06 00:15:09;;;;;;;;;;;;;;;14.66;60.38;100271.37;1598125;89;20172;-81
2021/10/06 00:17:35;;;;;;;;;;;;;;;14.68;60.44;100281.35;1597559;88;20167;-80
2021/10/06 00:20:00;;;;;;;;;;;;;;;14.67;60.45;100285.00;1597428;89;20992;-83
2021/10/06 00:22:26;;;;;;;;;;;;;;;14.70;60.32;100288.63;1598552;89;20504;-80
2021/10/06 00:24:51;;;;;;;;;;;;;;;14.69;60.57;100290.95;1599593;89;20185;-80
2021/10/06 00:27:17;;;;;;;;;;;;;;;14.72;60.56;100286.61;1599886;89;20214;-82
2021/10/06 00:29:43;;;;;;;;;;;;;;;14.75;60.49;100281.96;1596738;88;20183;-80
2021/10/06 00:32:08;;;;;;;;;;;;;;;14.65;60.42;100275.06;1598599;88;21193;-80
2021/10/06 00:34:34;;;;;;;;;;;;;;;14.65;60.47;100265.77;1598897;88;20872;-83
2021/10/06 00:36:59;;;;;;;;;;;;;;;14.50;60.65;100252.91;1599213;88;20126;-82
2021/10/06 00:39:25;;;;;;;;;;;;;;;14.52;60.84;100269.48;1594510;88;20448;-81
2021/10/06 00:41:52;;;;;;;;;;;;;;;14.48;60.98;100272.17;1597541;88;20205;-82
2021/10/06 00:44:20;;;;;;;;;;;;;;;14.41;61.07;100265.94;1599274;88;21122;-83
2021/10/06 00:46:46;;;;;;;;;;;;;;;14.41;61.14;100273.91;1599680;88;20399;-86
2021/10/06 00:49:13;;;;;;;;;;;;;;;14.42;61.08;100273.73;1597913;88;20254;-82
2021/10/06 00:51:39;;;;;;;;;;;;;;;14.44;61.22;100280.19;1598483;88;20233;-81
2021/10/06 00:54:04;;;;;;;;;;;;;;;14.45;61.25;100285.81;1586030;88;20170;-81
2021/10/06 00:56:30;;;;;;;;;;;;;;;14.43;61.13;100283.84;1570898;89;21135;-82
2021/10/06 00:58:55;;;;;;;;;;;;;;;14.38;61.26;100282.23;1570723;89;20454;-82
2021/10/06 01:01:21;;;;;;;;;;;;;;;14.38;61.37;100287.55;1575488;90;20154;-81
2021/10/06 01:03:50;;;;;;;;;;;;;;;14.40;61.41;100290.84;1569681;90;20145;-85
2021/10/06 01:06:16;;;;;;;;;;;;;;;14.42;61.22;100294.14;1571542;90;20193;-81
2021/10/06 01:08:42;;;;;;;;;;;;;;;14.40;61.46;100297.48;1577500;90;21133;-82
2021/10/06 01:11:09;;;;;;;;;;;;;;;14.45;61.36;100288.47;1573447;90;20232;-82
2021/10/06 01:13:36;;;;;;;;;;;;;;;14.48;61.35;100288.11;1572762;90;20224;-80
2021/10/06 01:16:02;;;;;;;;;;;;;;;14.51;61.27;100298.38;1573310;89;20239;-82
2021/10/06 01:18:27;;;;;;;;;;;;;;;14.56;61.30;100298.70;1576559;90;20183;-82
2021/10/06 01:20:53;;;;;;;;;;;;;;;14.57;61.27;100295.02;1574876;90;21117;-81
2021/10/06 01:23:19;;;;;;;;;;;;;;;14.53;61.49;100291.08;1573687;90;20774;-82
2021/10/06 01:25:44;;;;;;;;;;;;;;;14.53;61.24;100289.23;1568820;90;20157;-82
2021/10/06 01:28:10;;;;;;;;;;;;;;;14.54;61.11;100290.91;1569622;90;20594;-82
2021/10/06 01:30:35;;;;;;;;;;;;;;;14.57;61.18;100280.91;1569325;90;20138;-82
2021/10/06 01:33:01;;;;;;;;;;;;;;;14.58;61.04;100283.39;1572967;89;21341;-86
2021/10/06 01:35:27;;;;;;;;;;;;;;;14.61;60.98;100279.08;1570356;89;20151;-81
2021/10/06 01:37:52;;;;;;;;;;;;;;;14.68;60.75;100284.01;1577261;90;20191;-82
2021/10/06 01:40:20;;;;;;;;;;;;;;;14.66;60.64;100283.85;1570669;90;20530;-81
2021/10/06 01:42:46;;;;;;;;;;;;;;;14.71;60.67;100288.97;1572024;90;20221;-81
2021/10/06 01:45:20;;;;;;;;;;;;;;;14.82;60.39;100292.17;1568210;89;21117;-83
2021/10/06 01:47:46;;;;;;;;;;;;;;;14.76;60.32;100284.92;1570110;90;20345;-80
2021/10/06 01:50:11;;;;;;;;;;;;;;;14.79;60.16;100280.09;1568198;90;20182;-81
2021/10/06 01:52:37;;;;;;;;;;;;;;;14.80;60.35;100270.27;1553858;90;20543;-83
2021/10/06 01:55:03;;;;;;;;;;;;;;;14.75;60.22;100277.97;1593195;89;20163;-82
2021/10/06 01:57:28;;;;;;;;;;;;;;;14.67;60.24;100274.37;1596521;88;22163;-81
2021/10/06 01:59:54;;;;;;;;;;;;;;;14.69;60.14;100277.66;1599229;88;20162;-81
2021/10/06 02:02:19;;;;;;;;;;;;;;;14.66;60.28;100272.71;1599331;88;20142;-81
2021/10/06 02:04:45;;;;;;;;;;;;;;;14.68;60.28;100266.73;1597144;89;20188;-82
2021/10/06 02:07:10;;;;;;;;;;;;;;;14.63;60.26;100259.78;1596153;88;20137;-82
2021/10/06 02:09:36;;;;;;;;;;;;;;;14.56;60.47;100266.81;1598287;88;21173;-85
2021/10/06 02:12:02;;;;;;;;;;;;;;;14.52;60.63;100264.98;1598690;88;20771;-82
2021/10/06 02:14:27;;;;;;;;;;;;;;;14.57;60.67;100264.97;1597987;89;20301;-82
2021/10/06 02:16:53;;;;;;;;;;;;;;;14.57;60.76;100268.95;1596547;88;20158;-81
2021/10/06 02:19:18;;;;;;;;;;;;;;;14.57;60.86;100284.38;1597623;88;20508;-81
2021/10/06 02:21:44;;;;;;;;;;;;;;;14.54;60.87;100282.93;1598677;89;22037;-80
2021/10/06 02:24:10;;;;;;;;;;;;;;;14.51;60.97;100289.94;1598429;88;20159;-81
2021/10/06 02:26:35;;;;;;;;;;;;;;;14.52;61.08;100300.86;1597825;88;20170;-83
2021/10/06 02:29:01;;;;;;;;;;;;;;;14.60;61.00;100297.34;1597635;88;20147;-80
2021/10/06 02:31:27;;;;;;;;;;;;;;;14.61;61.16;100309.64;1599160;89;20589;-80
2021/10/06 02:33:52;;;;;;;;;;;;;;;14.60;61.09;100310.63;1594007;88;21251;-81
2021/10/06 02:36:18;;;;;;;;;;;;;;;14.59;60.91;100304.98;1598379;89;20171;-83
2021/10/06 02:38:43;;;;;;;;;;;;;;;14.60;61.03;100313.77;1597216;88;20138;-82
2021/10/06 02:41:09;;;;;;;;;;;;;;;14.67;60.82;100313.42;1597066;88;20440;-81
2021/10/06 02:43:34;;;;;;;;;;;;;;;14.65;60.87;100313.61;1597771;88;20163;-83
2021/10/06 02:46:00;;;;;;;;;;;;;;;14.68;60.89;100312.40;1597791;89;21208;-84
2021/10/06 02:48:25;;;;;;;;;;;;;;;14.69;60.81;100306.09;1598895;88;20192;-80
2021/10/06 02:50:51;;;;;;;;;;;;;;;14.67;60.63;100302.28;1598019;88;20219;-83
2021/10/06 02:53:16;;;;;;;;;;;;;;;14.63;60.77;100299.65;1599289;88;20182;-80
2021/10/06 02:55:42;;;;;;;;;;;;;;;14.62;60.67;100305.98;1571811;89;20669;-80
2021/10/06 02:58:08;;;;;;;;;;;;;;;14.60;60.77;100300.48;1572905;90;21130;-83
2021/10/06 03:00:33;;;;;;;;;;;;;;;14.63;60.64;100298.83;1571108;89;20200;-80
2021/10/06 03:02:59;;;;;;;;;;;;;;;14.62;60.61;100295.84;1573245;90;20196;-80
2021/10/06 03:05:25;;;;;;;;;;;;;;;14.64;60.64;100303.16;1571187;90;20648;-79
2021/10/06 03:07:50;;;;;;;;;;;;;;;14.67;60.52;100303.61;1569276;90;20144;-82
2021/10/06 03:10:17;;;;;;;;;;;;;;;14.70;60.58;100301.92;1571385;89;21186;-81
2021/10/06 03:12:42;;;;;;;;;;;;;;;14.71;60.41;100304.06;1573662;89;20179;-81
2021/10/06 03:15:10;;;;;;;;;;;;;;;14.72;60.26;100314.52;1573900;90;20162;-83
2021/10/06 03:17:38;;;;;;;;;;;;;;;14.77;60.24;100315.83;1572414;89;20139;-80
2021/10/06 03:20:05;;;;;;;;;;;;;;;14.72;60.36;100313.20;1551673;90;20213;-81
2021/10/06 03:22:31;;;;;;;;;;;;;;;14.66;60.45;100315.23;1573383;90;21697;-82
2021/10/06 03:24:57;;;;;;;;;;;;;;;14.65;60.54;100312.27;1573138;90;20190;-83
2021/10/06 03:27:22;;;;;;;;;;;;;;;14.57;60.55;100302.98;1570270;90;20140;-81
2021/10/06 03:29:48;;;;;;;;;;;;;;;14.57;60.67;100306.97;1571764;90;20667;-83
2021/10/06 03:32:13;;;;;;;;;;;;;;;14.62;60.70;100302.48;1571266;90;20157;-81
2021/10/06 03:34:39;;;;;;;;;;;;;;;14.55;60.71;100309.81;1571119;90;21103;-79
2021/10/06 03:37:04;;;;;;;;;;;;;;;14.52;60.81;100309.34;1572213;89;20472;-81
2021/10/06 03:39:30;;;;;;;;;;;;;;;14.50;60.91;100308.20;1569818;89;20194;-80
2021/10/06 03:41:56;;;;;;;;;;;;;;;14.50;60.79;100304.72;1574185;90;20771;-80
2021/10/06 03:44:22;;;;;;;;;;;;;;;14.52;60.91;100310.68;1575665;89;20533;-81
2021/10/06 03:46:47;;;;;;;;;;;;;;;14.49;60.97;100307.05;1571775;90;21919;-81
2021/10/06 03:49:13;;;;;;;;;;;;;;;14.48;60.91;100309.37;1574494;90;20156;-80
2021/10/06 03:51:38;;;;;;;;;;;;;;;14.50;61.25;100318.83;1572965;89;20834;-83
2021/10/06 03:54:04;;;;;;;;;;;;;;;14.49;61.84;100317.16;1576313;89;20609;-82
2021/10/06 03:56:29;;;;;;;;;;;;;;;14.49;62.31;100313.69;1597586;88;20207;-80
2021/10/06 03:58:55;;;;;;;;;;;;;;;14.48;62.30;100312.02;1599157;88;21192;-80
2021/10/06 04:01:21;;;;;;;;;;;;;;;14.43;62.29;100317.05;1598103;88;20249;-82
2021/10/06 04:03:46;;;;;;;;;;;;;;;14.47;62.21;100323.17;1597385;88;20508;-79
2021/10/06 04:06:12;;;;;;;;;;;;;;;14.50;62.07;100320.67;1598304;88;20536;-80
2021/10/06 04:08:38;;;;;;;;;;;;;;;14.50;61.81;100312.19;1598588;88;20158;-81
2021/10/06 04:11:03;;;;;;;;;;;;;;;14.47;62.04;100311.21;1595564;88;21151;-79
2021/10/06 04:13:29;;;;;;;;;;;;;;;14.44;61.89;100313.41;1598472;88;20221;-81
2021/10/06 04:15:54;;;;;;;;;;;;;;;14.44;61.59;100309.42;1597287;88;20187;-82
2021/10/06 04:18:20;;;;;;;;;;;;;;;14.43;61.68;100313.07;1597030;88;20527;-82
2021/10/06 04:20:45;;;;;;;;;;;;;;;14.33;61.83;100317.30;1598761;88;20162;-79
2021/10/06 04:23:12;;;;;;;;;;;;;;;14.41;61.88;100319.07;1598770;88;21923;-85
2021/10/06 04:25:37;;;;;;;;;;;;;;;14.45;61.94;100321.20;1599478;89;20519;-81
2021/10/06 04:28:03;;;;;;;;;;;;;;;14.52;61.78;100315.99;1598968;88;20122;-80
2021/10/06 04:30:31;;;;;;;;;;;;;;;14.54;61.83;100325.93;1597925;88;20188;-83
2021/10/06 04:32:56;;;;;;;;;;;;;;;14.49;61.96;100332.30;1599135;88;20159;-83
2021/10/06 04:35:22;;;;;;;;;;;;;;;14.54;61.64;100339.22;1599085;88;21020;-81
2021/10/06 04:37:48;;;;;;;;;;;;;;;14.59;61.44;100336.88;1598900;88;20191;-82
2021/10/06 04:40:14;;;;;;;;;;;;;;;14.60;61.49;100330.56;1598715;89;20213;-81
2021/10/06 04:42:39;;;;;;;;;;;;;;;14.57;61.69;100333.55;1598069;88;20180;-84
2021/10/06 04:45:05;;;;;;;;;;;;;;;14.58;62.01;100341.04;1598189;88;20282;-81
2021/10/06 04:47:31;;;;;;;;;;;;;;;14.61;62.18;100339.39;1596083;88;21187;-81
2021/10/06 04:49:56;;;;;;;;;;;;;;;14.59;62.07;100344.00;1597608;88;20566;-80
2021/10/06 04:52:22;;;;;;;;;;;;;;;14.60;62.16;100350.50;1597209;88;20162;-82
2021/10/06 04:54:48;;;;;;;;;;;;;;;14.57;62.15;100346.02;1598408;89;20489;-82
2021/10/06 04:57:14;;;;;;;;;;;;;;;14.58;62.32;100352.48;1594234;88;20867;-80
2021/10/06 04:59:39;;;;;;;;;;;;;;;14.57;63.57;100362.78;1593044;88;21342;-81
2021/10/06 05:02:05;;;;;;;;;;;;;;;14.60;63.98;100369.10;1592320;88;20155;-83
2021/10/06 05:04:30;;;;;;;;;;;;;;;14.48;64.41;100367.83;1592137;88;20452;-86
2021/10/06 05:06:56;;;;;;;;;;;;;;;14.48;64.74;100369.16;1594260;88;20516;-81
2021/10/06 05:09:22;;;;;;;;;;;;;;;14.47;65.10;100359.55;1591189;88;20315;-80
2021/10/06 05:11:47;;;;;;;;;;;;;;;14.50;65.18;100365.84;1593546;88;21192;-80
2021/10/06 05:14:13;;;;;;;;;;;;;;;14.45;65.73;100378.81;1594197;88;20247;-84
2021/10/06 05:16:40;;;;;;;;;;;;;;;14.42;65.74;100380.48;1573731;88;20178;-80
2021/10/06 05:19:12;;;;;;;;;;;;;;;14.34;66.29;100387.52;1590574;89;20595;-82
2021/10/06 05:21:37;;;;;;;;;;;;;;;14.33;66.68;100384.53;1592665;88;20604;-81
2021/10/06 05:24:03;;;;;;;;;;;;;;;14.36;66.91;100388.16;1592225;89;21246;-80
2021/10/06 05:26:29;;;;;;;;;;;;;;;14.30;67.19;100386.21;1593132;88;20270;-80
2021/10/06 05:28:55;;;;;;;;;;;;;;;14.31;67.97;100386.55;1593287;89;20328;-81
2021/10/06 05:31:21;;;;;;;;;;;;;;;14.26;68.95;100390.23;1594597;88;20164;-79
2021/10/06 05:33:48;;;;;;;;;;;;;;;14.25;69.81;100389.90;1593555;88;20177;-78
2021/10/06 05:36:14;;;;;;;;;;;;;;;14.19;70.22;100387.94;1593466;88;21210;-81
2021/10/06 05:38:44;;;;;;;;;;;;;;;14.17;69.77;100389.95;1594059;88;20678;-83
2021/10/06 05:41:10;;;;;;;;;;;;;;;14.17;70.03;100397.92;1593689;88;20473;-85
2021/10/06 05:43:35;;;;;;;;;;;;;;;14.09;69.64;100397.94;1589141;88;20238;-83
2021/10/06 05:46:01;;;;;;;;;;;;;;;14.04;70.47;100408.26;1592385;89;20230;-81
2021/10/06 05:48:27;;;;;;;;;;;;;;;14.03;70.24;100406.59;1589144;88;22053;-84
2021/10/06 05:50:52;;;;;;;;;;;;;;;14.07;70.19;100411.89;1590688;88;20511;-83
2021/10/06 05:53:20;;;;;;;;;;;;;;;14.04;70.23;100410.91;1591919;89;20162;-80
2021/10/06 05:55:45;;;;;;;;;;;;;;;14.09;70.29;100419.18;1594991;88;20185;-81
2021/10/06 05:58:12;;;;;;;;;;;;;;;14.11;70.42;100417.20;1597723;88;20219;-80
2021/10/06 06:00:38;;;;;;;;;;;;;;;14.16;70.26;100422.81;1594733;88;21420;-82
2021/10/06 06:03:03;;;;;;;;;;;;;;;14.21;70.00;100431.08;1597067;88;20321;-80
2021/10/06 06:05:29;;;;;;;;;;;;;;;14.24;70.03;100428.08;1595957;88;20505;-91
2021/10/06 06:07:54;;;;;;;;;;;;;;;14.30;70.21;100426.56;1597746;88;20528;-81
2021/10/06 06:10:20;;;;;;;;;;;;;;;14.30;70.41;100432.70;1598632;88;20208;-81
2021/10/06 06:12:46;;;;;;;;;;;;;;;14.34;70.89;100432.69;1597156;88;21333;-81
2021/10/06 06:15:12;;;;;;;;;;;;;;;14.32;71.36;100433.34;1595083;88;20542;-84
2021/10/06 06:17:38;;;;;;;;;;;;;;;14.31;71.76;100437.02;1597501;89;20493;-80
2021/10/06 06:20:06;;;;;;;;;;;;;;;14.32;71.97;100435.18;1597091;88;20133;-83
2021/10/06 06:22:32;;;;;;;;;;;;;;;14.32;72.95;100435.18;1595710;88;20211;-84
2021/10/06 06:24:58;;;;;;;;;;;;;;;14.29;72.27;100432.88;1597262;88;21179;-82
2021/10/06 06:27:23;;;;;;;;;;;;;;;14.28;72.06;100428.58;1599123;89;20507;-79
2021/10/06 06:29:49;;;;;;;;;;;;;;;14.16;72.47;100438.75;1597158;88;20154;-83
2021/10/06 06:32:14;;;;;;;;;;;;;;;14.14;72.30;100431.47;1597135;88;20152;-82
2021/10/06 06:34:40;;;;;;;;;;;;;;;14.14;72.14;100439.43;1594838;88;20182;-81
2021/10/06 06:37:05;;;;;;;;;;;;;;;14.15;72.24;100435.27;1597931;88;21199;-82
2021/10/06 06:39:31;;;;;;;;;;;;;;;14.14;72.04;100443.41;1597858;88;20507;-82
2021/10/06 06:41:56;;;;;;;;;;;;;;;14.19;71.77;100439.22;1599463;89;20153;-81
2021/10/06 06:44:22;;;;;;;;;;;;;;;14.05;71.81;100443.94;1593253;88;20170;-81
2021/10/06 06:46:48;;;;;;;;;;;;;;;14.15;71.50;100456.52;1596181;88;20190;-85
2021/10/06 06:49:16;;;;;;;;;;;;;;;14.12;71.03;100460.84;1596141;88;21063;-83
2021/10/06 06:51:42;;;;;;;;;;;;;;;14.17;71.04;100458.50;1598740;88;20166;-82
2021/10/06 06:54:08;;;;;;;;;;;;;;;14.23;70.81;100466.77;1595423;88;20126;-83
2021/10/06 06:56:38;;;;;;;;;;;;;;;14.31;70.51;100466.24;1594626;88;20495;-85
2021/10/06 06:59:01;;;;;;;;;;;;;;;14.35;70.44;100471.52;1590273;88;20226;-82
2021/10/06 07:01:26;;;;;;;;;;;;;;;14.42;69.97;100470.34;1598620;89;21951;-82
2021/10/06 07:03:52;;;;;;;;;;;;;;;14.49;69.67;100473.12;1597245;88;20150;-84
2021/10/06 07:06:17;;;;;;;;;;;;;;;14.51;69.55;100480.41;1599004;88;20457;-87
2021/10/06 07:08:47;;;;;;;;;;;;;;;14.60;69.59;100482.06;1598052;88;20564;-81
2021/10/06 07:11:10;;;;;;;;;;;;;;;14.64;70.11;100484.70;1597573;88;20225;-84
2021/10/06 07:13:36;;;;;;;;;;;;;;;14.61;69.30;100485.06;1596217;88;21177;-80
2021/10/06 07:16:02;;;;;;;;;;;;;;;14.68;68.98;100486.03;1598348;88;20579;-81
2021/10/06 07:18:29;;;;;;;;;;;;;;;14.77;68.47;100483.31;1598608;89;20220;-81
2021/10/06 07:20:56;;;;;;;;;;;;;;;14.81;67.78;100488.61;1596643;88;20521;-82
2021/10/06 07:23:24;;;;;;;;;;;;;;;14.83;67.69;100493.25;1595861;88;20180;-81
2021/10/06 07:25:51;;;;;;;;;;;;;;;14.84;67.65;100494.91;1595453;88;20166;-81
2021/10/06 07:28:18;;;;;;;;;;;;;;;14.92;67.36;100496.18;1597136;88;20550;-83
2021/10/06 07:30:44;;;;;;;;;;;;;;;14.95;66.73;100492.35;1599437;88;20299;-81
2021/10/06 07:33:09;;;;;;;;;;;;;;;15.02;67.13;100500.78;1593450;88;20608;-82
2021/10/06 07:35:35;;;;;;;;;;;;;;;15.06;66.40;100507.38;1597606;89;20129;-85
2021/10/06 07:38:00;;;;;;;;;;;;;;;15.15;66.09;100507.31;1596732;88;21318;-86
2021/10/06 07:40:26;;;;;;;;;;;;;;;15.23;66.53;100512.59;1599005;88;20493;-82
2021/10/06 07:42:51;;;;;;;;;;;;;;;15.33;65.79;100521.15;1595371;89;20178;-88
2021/10/06 07:45:17;;;;;;;;;;;;;;;15.38;65.88;100528.12;1597163;88;20510;-83
2021/10/06 07:47:43;;;;;;;;;;;;;;;15.36;65.38;100520.79;1596039;88;20218;-84
2021/10/06 07:50:08;;;;;;;;;;;;;;;15.40;64.54;100518.11;1598168;89;21204;-82
2021/10/06 07:52:34;;;;;;;;;;;;;;;15.34;64.30;100521.48;1599414;88;20274;-86
2021/10/06 07:54:59;;;;;;;;;;;;;;;15.36;64.60;100523.45;1599532;88;20486;-84
2021/10/06 07:57:25;;;;;;;;;;;;;;;15.37;64.92;100525.13;1593636;89;20158;-89
2021/10/06 07:59:51;;;;;;;;;;;;;;;15.42;64.71;100529.39;1595150;88;20142;-83
2021/10/06 08:02:16;;;;;;;;;;;;;;;15.42;64.76;100532.05;1595559;88;22055;-83
2021/10/06 08:04:42;;;;;;;;;;;;;;;15.51;64.61;100526.69;1597218;88;20146;-82
2021/10/06 08:07:07;;;;;;;;;;;;;;;15.57;64.05;100529.96;1595111;88;20158;-80
2021/10/06 08:09:34;;;;;;;;;;;;;;;15.52;63.91;100528.32;1597634;88;20254;-82
2021/10/06 08:12:00;;;;;;;;;;;;;;;15.62;63.96;100543.55;1597108;88;20167;-82
2021/10/06 08:14:25;;;;;;;;;;;;;;;15.63;63.71;100538.56;1595614;89;21165;-84
2021/10/06 08:16:51;;;;;;;;;;;;;;;15.67;63.56;100546.50;1598976;88;20268;-82
2021/10/06 08:19:16;;;;;;;;;;;;;;;15.71;63.58;100543.80;1592605;88;20150;-82
2021/10/06 08:21:44;;;;;;;;;;;;;;;15.73;63.10;100540.45;1597321;88;20146;-85
2021/10/06 08:24:09;;;;;;;;;;;;;;;15.77;62.70;100543.63;1596920;88;20155;-84
2021/10/06 08:26:35;;;;;;;;;;;;;;;15.81;62.29;100542.76;1596879;88;21303;-84
2021/10/06 08:29:00;;;;;;;;;;;;;;;15.85;62.03;100546.20;1594996;88;20204;-84
2021/10/06 08:31:26;;;;;;;;;;;;;;;15.94;62.53;100536.28;1596367;88;20213;-87
2021/10/06 08:33:52;;;;;;;;;;;;;;;15.88;62.56;100535.68;1599840;88;20971;-82
2021/10/06 08:36:17;;;;;;;;;;;;;;;15.87;62.31;100531.38;1598599;88;20199;-86
2021/10/06 08:38:43;;;;;;;;;;;;;;;15.99;62.17;100540.59;1595257;88;21186;-82
2021/10/06 08:41:08;;;;;;;;;;;;;;;16.02;62.27;100534.89;1595267;88;20290;-83
2021/10/06 08:43:36;;;;;;;;;;;;;;;15.95;61.85;100540.61;1596251;88;20182;-84
2021/10/06 08:46:01;;;;;;;;;;;;;;;16.06;62.01;100544.67;1598633;88;20255;-82
2021/10/06 08:48:31;;;;;;;;;;;;;;;16.12;62.20;100546.61;1596611;88;20827;-85
2021/10/06 08:50:54;;;;;;;;;;;;;;;16.19;62.36;100550.20;1595922;88;20191;-81
2021/10/06 08:53:20;;;;;;;;;;;;;;;16.29;61.93;100555.25;1597880;88;20227;-85
2021/10/06 08:55:45;;;;;;;;;;;;;;;16.31;61.38;100549.22;1597839;88;20247;-82
2021/10/06 08:58:11;;;;;;;;;;;;;;;16.45;61.08;100552.41;1598314;89;20154;-82
2021/10/06 09:00:56;;;;;;;;;;;;;;;16.46;60.21;100548.71;1597019;88;20186;-83
2021/10/06 09:03:29;;;;;;;;;;;;;;;16.51;60.22;100555.67;1597702;89;21393;-83
2021/10/06 09:06:01;;;;;;;;;;;;;;;16.70;60.58;100557.41;1597764;88;20174;-82
2021/10/06 09:08:27;;;;;;;;;;;;;;;16.74;60.19;100550.70;1598667;89;20234;-88
2021/10/06 09:10:53;;;;;;;;;;;;;;;16.82;59.66;100541.25;1597987;88;20419;-82
2021/10/06 09:13:18;;;;;;;;;;;;;;;16.84;59.21;100541.91;1598333;88;21814;-82
2021/10/06 09:15:45;;;;;;;;;;;;;;;16.94;59.23;100543.48;1556005;89;21334;-82
2021/10/06 09:18:13;;;;;;;;;;;;;;;17.07;59.29;100546.27;1599687;88;20194;-85
2021/10/06 09:20:39;;;;;;;;;;;;;;;17.11;59.32;100546.75;1596739;88;20194;-86
2021/10/06 09:23:07;;;;;;;;;;;;;;;17.12;59.40;100546.55;1598344;88;20172;-81
2021/10/06 09:25:54;;;;;;;;;;;;;;;17.12;58.01;100549.71;1595439;88;20182;-86
2021/10/06 09:28:23;;;;;;;;;;;;;;;17.12;58.13;100549.22;1596900;88;21373;-79
2021/10/06 09:31:04;;;;;;;;;;;;;;;17.18;58.33;100544.95;1596058;88;20182;-79
2021/10/06 09:33:44;;;;;;;;;;;;;;;17.13;57.86;100538.03;1597592;88;20231;-83
2021/10/06 09:36:20;;;;;;;;;;;;;;;17.19;57.52;100551.44;1595827;88;20232;-80
2021/10/06 09:38:54;;;;;;;;;;;;;;;17.25;58.10;100551.71;1578173;88;20229;-84
2021/10/06 09:41:43;;;;;;;;;;;;;;;17.35;57.80;100558.87;1596731;88;21170;-84
2021/10/06 09:44:16;;;;;;;;;;;;;;;17.47;57.77;100552.53;1595100;88;20923;-86
2021/10/06 09:46:54;;;;;;;;;;;;;;;17.53;57.77;100555.25;1598247;88;20515;-84
2021/10/06 09:49:26;;;;;;;;;;;;;;;17.57;57.00;100555.20;1595922;88;20163;-83
2021/10/06 09:51:52;;;;;;;;;;;;;;;17.52;56.34;100558.93;1596101;88;20264;-87
2021/10/06 09:54:18;;;;;;;;;;;;;;;17.58;56.10;100564.02;1598196;88;21142;-87
2021/10/06 09:56:45;;;;;;;;;;;;;;;17.69;56.29;100566.68;1597037;88;20179;-86
2021/10/06 09:59:13;;;;;;;;;;;;;;;17.76;56.40;100567.05;1598960;88;20216;-91
2021/10/06 10:01:39;;;;;;;;;;;;;;;17.73;56.08;100570.63;1598105;89;20257;-81
2021/10/06 10:04:06;;;;;;;;;;;;;;;17.81;56.33;100573.16;1593380;88;20206;-87
2021/10/06 10:06:32;;;;;;;;;;;;;;;17.84;56.05;100570.09;1595076;88;22012;-81
2021/10/06 10:08:59;;;;;;;;;;;;;;;17.92;55.50;100571.31;1597712;88;20273;-81
2021/10/06 10:11:25;;;;;;;;;;;;;;;18.00;55.24;100572.20;1598527;88;20186;-80
2021/10/06 10:13:51;;;;;;;;;;;;;;;17.82;54.93;100574.81;1596039;88;20154;-82
2021/10/06 10:16:16;;;;;;;;;;;;;;;17.94;55.08;100574.64;1597042;88;20494;-80
2021/10/06 10:18:42;;;;;;;;;;;;;;;17.97;55.21;100572.06;1597007;88;21113;-82
2021/10/06 10:21:10;;;;;;;;;;;;;;;17.99;54.95;100578.06;1595856;88;21287;-87
2021/10/06 10:23:37;;;;;;;;;;;;;;;18.16;54.68;100579.89;1554106;89;32760;-87
2021/10/06 10:26:02;;;;;;;;;;;;;;;18.12;54.67;100579.99;1599666;88;21619;-87
2021/10/06 10:28:35;;;;;;;;;;;;;;;18.21;55.02;100577.97;1596982;88;20202;-84
2021/10/06 10:31:02;;;;;;;;;;;;;;;18.27;54.99;100578.04;1593028;88;21419;-82
2021/10/06 10:33:42;;;;;;;;;;;;;;;18.34;54.27;100575.92;1596237;88;20191;-81
2021/10/06 10:36:28;;;;;;;;;;;;;;;18.37;53.87;100578.20;1596997;88;20258;-81
2021/10/06 10:38:53;;;;;;;;;;;;;;;18.39;54.35;100586.84;1596035;88;20164;-80
2021/10/06 10:41:42;;;;;;;;;;;;;;;18.40;54.33;100587.98;1596439;88;20210;-85
2021/10/06 10:44:08;;;;;;;;;;;;;;;18.36;53.67;100585.89;1598484;88;21102;-83
2021/10/06 10:46:54;;;;;;;;;;;;;;;18.28;53.80;100582.34;1598352;88;20255;-84
2021/10/06 10:49:20;;;;;;;;;;;;;;;18.30;54.09;100592.35;1596177;88;20214;-86
2021/10/06 10:51:59;;;;;;;;;;;;;;;18.26;54.31;100587.07;1597995;88;20150;-83
2021/10/06 10:54:40;;;;;;;;;;;;;;;18.24;53.99;100581.10;1595240;88;20190;-82
2021/10/06 10:57:22;;;;;;;;;;;;;;;18.25;54.02;100592.09;1598304;88;21228;-86
2021/10/06 10:59:51;;;;;;;;;;;;;;;18.24;54.17;100588.28;1596642;88;21208;-87
2021/10/06 11:02:19;;;;;;;;;;;;;;;18.37;53.61;100587.03;1595455;88;20157;-83
2021/10/06 11:04:49;;;;;;;;;;;;;;;18.39;53.63;100588.17;1596569;88;20713;-83
2021/10/06 11:07:18;;;;;;;;;;;;;;;18.41;53.36;100591.47;1596721;88;20966;-84
2021/10/06 11:09:59;;;;;;;;;;;;;;;18.40;53.22;100599.20;1599081;88;21083;-81
2021/10/06 11:12:30;;;;;;;;;;;;;;;18.34;53.87;100598.64;1597842;88;20227;-81
2021/10/06 11:15:07;;;;;;;;;;;;;;;18.41;53.27;100603.50;1596678;88;20480;-82
2021/10/06 11:17:33;;;;;;;;;;;;;;;18.48;53.20;100600.36;1594474;88;20182;-87
2021/10/06 11:19:58;;;;;;;;;;;;;;;18.64;53.00;100601.88;1598238;88;20138;-87
2021/10/06 11:22:37;;;;;;;;;;;;;;;18.64;52.97;100610.75;1598614;88;21868;-85
2021/10/06 11:25:04;;;;;;;;;;;;;;;18.73;52.08;100602.55;1593471;88;20173;-79
2021/10/06 11:27:49;;;;;;;;;;;;;;;18.83;52.39;100601.66;1595302;88;20507;-80
2021/10/06 11:30:16;;;;;;;;;;;;;;;18.92;52.56;100603.69;1597067;88;20227;-81
2021/10/06 11:32:47;;;;;;;;;;;;;;;19.08;52.25;100593.13;1595150;88;20549;-80
2021/10/06 11:35:12;;;;;;;;;;;;;;;19.23;52.11;100593.79;1595617;88;21200;-85
2021/10/06 11:37:38;;;;;;;;;;;;;;;19.22;51.74;100590.82;1597436;89;20233;-86
2021/10/06 11:40:07;;;;;;;;;;;;;;;19.27;51.00;100592.89;1595927;89;20311;-83
2021/10/06 11:42:33;;;;;;;;;;;;;;;19.27;51.10;100592.89;1595816;88;20214;-81
2021/10/06 11:44:59;;;;;;;;;;;;;;;19.38;50.47;100590.95;1597037;88;20514;-79
2021/10/06 11:47:24;;;;;;;;;;;;;;;19.40;51.09;100592.09;1597742;88;20678;-80
2021/10/06 11:49:50;;;;;;;;;;;;;;;19.45;51.17;100585.59;1599187;88;20222;-79
2021/10/06 11:52:17;;;;;;;;;;;;;;;19.49;51.17;100589.52;1597614;88;20220;-81
2021/10/06 11:54:46;;;;;;;;;;;;;;;19.50;51.78;100583.97;1596962;88;20245;-84
2021/10/06 11:57:17;;;;;;;;;;;;;;;19.54;51.43;100583.03;1574571;88;20176;-87
2021/10/06 11:59:43;;;;;;;;;;;;;;;19.48;51.03;100582.51;1591546;88;21092;-79
2021/10/06 12:02:10;;;;;;;;;;;;;;;19.57;51.19;100583.96;1597220;88;20236;-83
2021/10/06 12:04:37;;;;;;;;;;;;;;;19.58;51.49;100581.60;1596851;88;20207;-83
2021/10/06 12:07:04;;;;;;;;;;;;;;;19.63;51.14;100583.14;1597177;88;20269;-83
2021/10/06 12:09:42;;;;;;;;;;;;;;;19.64;51.49;100586.14;1598553;88;20156;-80
2021/10/06 12:12:09;;;;;;;;;;;;;;;19.70;51.20;100586.66;1598177;88;21141;-80
2021/10/06 12:14:52;;;;;;;;;;;;;;;19.74;52.00;100579.84;1595411;88;20245;-82
2021/10/06 12:17:22;;;;;;;;;;;;;;;19.59;51.30;100585.09;1581687;88;20214;-80
2021/10/06 12:19:56;;;;;;;;;;;;;;;19.59;51.29;100585.91;1597391;88;20567;-79
2021/10/06 12:22:22;;;;;;;;;;;;;;;19.64;50.75;100585.30;1592974;89;20958;-80
2021/10/06 12:24:48;;;;;;;;;;;;;;;19.78;50.61;100588.84;1597992;89;21184;-86
2021/10/06 12:27:31;;;;;;;;;;;;;;;19.66;50.98;100596.13;1595595;89;20161;-78
2021/10/06 12:30:12;;;;;;;;;;;;;;;19.77;50.75;100589.89;1597501;89;20190;-84
2021/10/06 12:32:41;;;;;;;;;;;;;;;19.77;50.53;100596.06;1586511;89;20230;-79
2021/10/06 12:35:10;;;;;;;;;;;;;;;19.80;50.52;100589.48;1598394;88;20211;-79